Enter the Airport ICAO Code

Search by Airport or City

Current Weather

EHAM | Amsterdam Airport Schiphol

Amsterdam, Netherlands

Last Update 15 Minutes Ago

Clear Sky

Temperature of 31 ºC

Light to Moderate Winds from East

Temperature

31 ºC

Dew Point Temperature

18 ºC

Relative Humidity

46.12 %

Wind Direction

East (070º, Ranging from 040º to 100º)

Wind Velocity

15 km/h (08 kt)

Gusts

None

Visibility

No Significant Reductions

Sea Level Pressure

1013 hPa (Hectopascals)

Layers of Clouds

None

METAR EHAM 121425Z 07008KT 040V100 CAVOK 31/18 Q1013 NOSIG

Weather Forecast

EHAM | Amsterdam Airport Schiphol

Amsterdam, Netherlands

Forecast valid for the next 27 Hours

From now on it is expected:

Clear Sky

Light to Moderate Winds from East

In 2 hours it is expected the begining of 2 hours with intermittent periods of:

Thunderstorm with Rain

Moderate Winds from Variable Directions with Gusts

In 21 hours it is expected the begining of 6 hours with intermittent periods of:

Hail Fall

Moderate Winds from Variable Directions with Gusts

In 24 to 27 hours it is expected the begining of:

Light to Moderate Winds from NorthWest

Maximum Temperature

No Data

Minimum Temperature

No Data

TAF EHAM 121105Z 1212/1318 11007KT CAVOK PROB30 TEMPO 1217/1219 VRB15G25KT 6000 TSRA SCT070CB PROB40 TEMPO 1312/1318 VRB10G20KT 4500 TSRAGR SCT050CB BECMG 1315/1318 32007KT